»·PEaware :: N241BJ KJFK-KDCA

N241BJ :: KJFK-KDCA

FLIGHT INFORMATION

Flight Status: Arrived
Operator: Privately registered:
United States
More flights under this callsign
Pilot: Anonymous 14085 (14085)
Aircraft: BOEING 737-200
(B732)
More flights by this aircraft type
Origin: KJFK Kennedy Intl
United States
Destination: KDCA Ronald Reagan Washington Natl
United States
More flights between these airports :: More routes between these airports
Route: WAVEY EMJAY J174 ZIZZI ATR V308 BILIT CAPKO
File this flight plan on PilotEdge
Remarks:
Altitude:
(Current/Filed)
24,000ft
Speed:
(Current/Filed)
410kts
Departed: 20-May-17 09:57 PM
Arrived: 20-May-17 10:48 PM
Distance/Time
Traveled:
185nm/0:50
Distance/Time
To Go:
Arrived

Flight Plot

Page will automatically refresh every two minutes.

Flight plan parsing failed; only flown route is shown


Map Options




Map Legend


Flown Route
Filed Route
Departure Airport
Arrival Airport
Navaid (VOR, NDB)
Fix

Horizontal Profiles

Position Reports

Time Latitude Longitude Heading Altitude Ground
Speed
20-May-17 21:46 40.656264 -73.822222 335 22ft 0kts
20-May-17 21:47 40.656264 -73.822222 335 22ft 0kts
20-May-17 21:48 40.656264 -73.822222 335 22ft 0kts
20-May-17 21:49 40.656264 -73.822222 335 22ft 0kts
20-May-17 21:50 40.656264 -73.822222 335 22ft 0kts
20-May-17 21:51 40.656264 -73.822222 335 22ft 0kts
20-May-17 21:52 40.656264 -73.822222 335 22ft 0kts
20-May-17 21:53 40.656264 -73.822222 335 22ft 0kts
20-May-17 21:54 40.656264 -73.822222 335 22ft 0kts
20-May-17 21:55 40.656260 -73.822330 219 22ft 3kts
20-May-17 21:56 40.654340 -73.822387 177 22ft 7kts
20-May-17 21:57 40.652421 -73.819771 118 22ft 11kts
20-May-17 21:58 40.650373 -73.815264 135 22ft 10kts
20-May-17 21:59 40.647397 -73.814663 121 22ft 47kts
20-May-17 22:00 40.632341 -73.770213 117 1859ft 173kts
20-May-17 22:01 40.588325 -73.723491 163 4841ft 257kts
20-May-17 22:02 40.528454 -73.674087 145 9389ft 268kts
20-May-17 22:03 40.461450 -73.613870 142 12387ft 327kts
20-May-17 22:04 40.384503 -73.543870 141 15798ft 360kts
20-May-17 22:05 40.298739 -73.464857 144 18899ft 391kts
20-May-17 22:06 40.210529 -73.378483 144 21993ft 409kts
20-May-17 22:07 40.117994 -73.286864 145 24236ft 433kts
20-May-17 22:08 40.002903 -73.251180 203 24175ft 454kts
20-May-17 22:09 39.909947 -73.361852 229 24814ft 470kts
20-May-17 22:10 39.812074 -73.474275 223 24581ft 467kts
20-May-17 22:11 39.712898 -73.578096 222 24344ft 451kts
20-May-17 22:12 39.615550 -73.677806 221 24350ft 447kts
20-May-17 22:13 39.518790 -73.775891 222 24347ft 439kts
20-May-17 22:14 39.423974 -73.871956 222 24348ft 429kts
20-May-17 22:15 39.330832 -73.966051 222 24347ft 421kts
20-May-17 22:16 39.239287 -74.058232 222 24348ft 415kts
20-May-17 22:17 39.149066 -74.148735 222 24348ft 411kts
20-May-17 22:18 39.059524 -74.239038 222 24348ft 408kts
20-May-17 22:19 38.998616 -74.354915 247 24347ft 393kts
20-May-17 22:20 38.955516 -74.483149 251 24346ft 390kts
20-May-17 22:21 38.914652 -74.611223 251 24346ft 388kts
20-May-17 22:22 38.878353 -74.737720 255 24352ft 385kts
20-May-17 22:23 38.853943 -74.870701 259 24195ft 379kts
20-May-17 22:24 38.832060 -74.997678 259 23048ft 350kts
20-May-17 22:25 38.813124 -75.115989 261 21681ft 330kts
20-May-17 22:26 38.798555 -75.228967 267 20246ft 314kts
20-May-17 22:27 38.791380 -75.338071 269 18794ft 303kts
20-May-17 22:28 38.787465 -75.444623 269 17332ft 295kts
20-May-17 22:29 38.779832 -75.547958 266 15889ft 290kts
20-May-17 22:30 38.771589 -75.649984 266 14476ft 286kts
20-May-17 22:31 38.764923 -75.748266 267 13156ft 282kts
20-May-17 22:32 38.760231 -75.847718 267 11832ft 279kts
20-May-17 22:33 38.759662 -75.946101 272 10538ft 275kts
20-May-17 22:34 38.769562 -76.042967 274 9207ft 275kts
20-May-17 22:35 38.779214 -76.141028 274 7846ft 279kts
20-May-17 22:36 38.785605 -76.240798 274 6547ft 282kts
20-May-17 22:37 38.793093 -76.340218 276 5311ft 280kts
20-May-17 22:38 38.803958 -76.438676 281 4123ft 277kts
20-May-17 22:39 38.818366 -76.535163 281 2965ft 274kts
20-May-17 22:40 38.834975 -76.629063 283 1960ft 262kts
20-May-17 22:41 38.869605 -76.701130 310 1981ft 230kts
20-May-17 22:42 38.912476 -76.753657 327 1981ft 196kts
20-May-17 22:43 38.939947 -76.805963 282 1777ft 171kts
20-May-17 22:44 38.947710 -76.863409 275 1435ft 161kts
20-May-17 22:45 38.952081 -76.918767 274 1549ft 154kts
20-May-17 22:46 38.953836 -76.973119 258 1759ft 154kts
20-May-17 22:47 38.938922 -77.024062 234 1918ft 155kts
20-May-17 22:48 38.907976 -77.058553 196 1081ft 137kts
20-May-17 22:49 38.875583 -77.041124 156 375ft 127kts
20-May-17 22:50 38.848252 -77.037447 178 23ft 10kts
20-May-17 22:51 38.929338 -77.038716 228 1812ft 156kts
20-May-17 22:52 38.894674 -77.059215 160 627ft 142kts
20-May-17 22:53 38.863239 -77.039012 174 103ft 129kts
20-May-17 22:54 38.865075 -77.039174 175 143ft 130kts
20-May-17 22:55 38.847305 -77.037762 218 23ft 0kts
20-May-17 22:56 38.847150 -77.037911 216 23ft 0kts
20-May-17 22:57 38.847150 -77.037911 216 23ft 0kts

Navigation Log

Ident Type
Flight plan parsing failed, navigation log unavailable